createdAt,value
2022-12-08T00:04:22.121Z,10.13
2022-12-08T00:09:41.299Z,7.25
2022-12-08T00:14:50.327Z,8.10
2022-12-08T00:19:54.456Z,9.98
2022-12-08T00:24:57.892Z,15.20
2022-12-08T00:30:01.447Z,7.35
2022-12-08T00:35:05.942Z,6.37
2022-12-08T00:40:10.585Z,8.95
2022-12-08T00:50:18.768Z,8.02
2022-12-08T00:55:22.855Z,6.97
2022-12-08T01:00:27.956Z,8.07
2022-12-08T01:05:32.193Z,8.07
2022-12-08T01:10:40.374Z,7.60
2022-12-08T01:15:44.520Z,7.40
2022-12-08T01:20:48.710Z,7.40
2022-12-08T01:25:52.901Z,9.25
2022-12-08T01:30:57.483Z,8.52
2022-12-08T01:36:05.807Z,9.85
2022-12-08T01:41:10.611Z,7.13
2022-12-08T01:51:19.144Z,10.02
2022-12-08T02:01:35.355Z,5.88
2022-12-08T02:06:43.838Z,6.45
2022-12-08T02:11:47.828Z,6.47
2022-12-08T02:17:03.540Z,9.90
2022-12-08T02:22:25.835Z,7.18
2022-12-08T02:27:59.851Z,6.88
2022-12-08T02:33:40.494Z,6.80
2022-12-08T02:39:16.077Z,7.75
2022-12-08T02:44:44.572Z,8.20
2022-12-08T02:49:49.043Z,13.68
2022-12-08T02:55:02.690Z,13.48
2022-12-08T03:00:19.746Z,5.97
2022-12-08T03:05:42.050Z,10.70
2022-12-08T03:10:59.632Z,8.68
2022-12-08T03:16:08.066Z,14.55
2022-12-08T03:21:12.889Z,9.95
2022-12-08T03:26:32.523Z,8.57
2022-12-08T03:31:40.837Z,7.90
2022-12-08T03:36:46.952Z,6.95
2022-12-08T03:41:51.204Z,9.32
2022-12-08T03:46:55.730Z,5.90
2022-12-08T03:51:59.858Z,7.65
2022-12-08T03:57:04.107Z,8.85
2022-12-08T04:02:07.602Z,9.68
2022-12-08T04:07:11.367Z,7.50
2022-12-08T04:12:14.663Z,9.95
2022-12-08T04:17:18.571Z,6.07
2022-12-08T04:22:22.599Z,8.57
2022-12-08T04:27:27.088Z,5.82
2022-12-08T04:32:32.357Z,10.90
2022-12-08T04:37:36.487Z,8.32
2022-12-08T04:42:39.689Z,6.90
2022-12-08T04:47:44.038Z,14.38
2022-12-08T04:52:47.796Z,9.27
2022-12-08T04:57:52.069Z,8.90
2022-12-08T05:02:56.025Z,7.45
2022-12-08T05:08:00.305Z,10.02
2022-12-08T05:13:04.414Z,7.90
2022-12-08T05:18:08.014Z,10.57
2022-12-08T05:23:10.574Z,8.00
2022-12-08T05:28:40.260Z,8.48
2022-12-08T05:33:36.927Z,11.02
2022-12-08T05:38:40.097Z,13.23
2022-12-08T05:43:43.174Z,7.75
2022-12-08T05:48:47.160Z,8.50
2022-12-08T05:53:52.320Z,11.70
2022-12-08T05:58:56.252Z,10.85
2022-12-08T06:04:02.567Z,9.77
2022-12-08T06:09:07.203Z,15.52
2022-12-08T06:14:13.154Z,17.42
2022-12-08T06:19:16.681Z,15.52
2022-12-08T06:24:19.309Z,16.25
2022-12-08T06:29:21.898Z,9.77
2022-12-08T06:34:25.093Z,13.05
2022-12-08T06:39:29.089Z,31.90
2022-12-08T06:44:32.709Z,13.45
2022-12-08T06:49:36.949Z,14.57
2022-12-08T06:54:40.537Z,15.98
2022-12-08T06:59:43.047Z,18.02
2022-12-08T07:04:46.857Z,10.05
2022-12-08T07:09:50.778Z,20.73
2022-12-08T07:14:54.410Z,17.92
2022-12-08T07:19:58.229Z,15.65
2022-12-08T07:25:02.131Z,20.90
2022-12-08T07:30:06.760Z,15.95
2022-12-08T07:35:11.224Z,12.23
2022-12-08T07:40:14.487Z,20.43
2022-12-08T07:45:17.220Z,14.25
2022-12-08T07:50:20.116Z,13.50
2022-12-08T07:55:22.812Z,15.30
2022-12-08T08:00:25.819Z,17.85
2022-12-08T08:05:29.838Z,13.40
2022-12-08T08:10:33.695Z,18.90
2022-12-08T08:15:37.811Z,16.47
2022-12-08T08:20:42.397Z,10.90
2022-12-08T08:25:45.034Z,15.20
2022-12-08T08:30:49.216Z,11.15
2022-12-08T08:35:53.230Z,13.18
2022-12-08T08:40:56.590Z,15.18
2022-12-08T08:46:01.359Z,17.20
2022-12-08T08:51:11.554Z,15.75
2022-12-08T08:56:21.528Z,15.40
2022-12-08T09:01:27.766Z,11.68
2022-12-08T09:06:31.967Z,16.42
2022-12-08T09:11:35.714Z,21.37
2022-12-08T09:16:42.243Z,19.77
2022-12-08T09:21:47.918Z,12.75
2022-12-08T09:26:51.460Z,18.38
2022-12-08T09:31:56.531Z,22.48
2022-12-08T09:37:00.135Z,22.48
2022-12-08T09:42:09.868Z,19.88
2022-12-08T09:47:48.867Z,15.30
2022-12-08T09:53:14.401Z,13.40
2022-12-08T09:58:53.858Z,13.50
2022-12-08T10:03:57.229Z,17.73
2022-12-08T10:09:21.121Z,17.60
2022-12-08T10:14:49.998Z,12.18
2022-12-08T10:20:04.014Z,13.73
2022-12-08T10:25:27.237Z,20.60
2022-12-08T10:30:32.165Z,12.90
2022-12-08T10:35:49.457Z,16.20
2022-12-08T10:40:58.748Z,16.63
2022-12-08T10:46:21.041Z,15.70
2022-12-08T10:51:35.629Z,14.55
2022-12-08T10:56:39.263Z,10.77
2022-12-08T11:01:46.952Z,12.43
2022-12-08T11:06:51.628Z,15.13
2022-12-08T11:12:06.686Z,13.85
2022-12-08T11:17:25.029Z,11.32
2022-12-08T11:22:51.030Z,10.35
2022-12-08T11:27:59.038Z,9.35
2022-12-08T11:33:19.564Z,10.00
2022-12-08T11:38:25.468Z,10.07
2022-12-08T11:43:34.458Z,10.88
2022-12-08T11:49:05.993Z,10.05
2022-12-08T11:54:15.890Z,11.80
2022-12-08T11:59:29.780Z,12.50
2022-12-08T12:05:11.736Z,13.82
2022-12-08T12:10:29.519Z,12.13
2022-12-08T12:16:49.214Z,8.75
2022-12-08T12:21:58.318Z,11.05
2022-12-08T12:27:07.448Z,14.43
2022-12-08T12:32:11.910Z,9.93
2022-12-08T12:37:22.531Z,12.93
2022-12-08T12:42:40.723Z,11.50
2022-12-08T12:48:01.075Z,13.32
2022-12-08T12:53:19.519Z,11.25
2022-12-08T12:58:30.905Z,11.82
2022-12-08T13:03:34.578Z,14.10
2022-12-08T13:08:37.191Z,14.50
2022-12-08T13:14:04.818Z,12.98
2022-12-08T13:19:16.179Z,15.85
2022-12-08T13:24:24.751Z,13.45
2022-12-08T13:29:27.537Z,14.23
2022-12-08T13:35:00.141Z,18.70
2022-12-08T13:40:16.351Z,22.80
2022-12-08T13:45:52.963Z,14.43
2022-12-08T14:01:52.102Z,24.80
2022-12-08T14:07:01.634Z,17.57
2022-12-08T14:12:23.085Z,13.88
2022-12-08T14:17:25.847Z,12.80
2022-12-08T14:22:40.892Z,9.65
2022-12-08T14:27:45.799Z,32.85
2022-12-08T14:38:05.276Z,16.13
2022-12-08T14:43:09.136Z,14.50
2022-12-08T14:48:39.389Z,15.85
2022-12-08T14:54:06.613Z,10.13
2022-12-08T14:59:30.309Z,9.82
2022-12-08T15:04:33.021Z,9.13
2022-12-08T15:09:37.039Z,10.40
2022-12-08T15:15:14.604Z,8.67
2022-12-08T15:20:34.744Z,9.90
2022-12-08T15:25:38.510Z,9.43
2022-12-08T15:30:41.090Z,7.45
2022-12-08T15:35:45.370Z,10.45
2022-12-08T15:40:55.356Z,10.13
2022-12-08T15:46:00.058Z,10.05
2022-12-08T15:51:03.136Z,13.15
2022-12-08T16:01:32.865Z,11.55
2022-12-08T16:12:18.201Z,24.75
2022-12-08T16:17:21.826Z,66.40
2022-12-08T16:22:54.576Z,87.40
2022-12-08T16:28:02.807Z,92.68
2022-12-08T16:33:09.547Z,100.88
2022-12-08T16:38:16.461Z,45.50
2022-12-08T16:43:19.018Z,31.98
2022-12-08T16:48:22.548Z,24.45
2022-12-08T16:53:25.268Z,20.27
2022-12-08T16:58:27.959Z,14.00
2022-12-08T17:03:31.566Z,10.18
2022-12-08T17:08:34.499Z,10.95
2022-12-08T17:13:40.525Z,11.85
2022-12-08T17:18:43.326Z,15.25
2022-12-08T17:23:47.578Z,24.53
2022-12-08T17:29:05.812Z,25.63
2022-12-08T17:34:10.433Z,23.55
2022-12-08T17:39:18.249Z,24.77
2022-12-08T17:44:22.035Z,29.65
2022-12-08T17:49:29.642Z,20.67
2022-12-08T17:54:32.745Z,14.48
2022-12-08T17:59:35.486Z,12.02
2022-12-08T18:04:38.319Z,12.60
2022-12-08T18:09:41.942Z,10.27
2022-12-08T18:14:46.190Z,14.15
2022-12-08T18:19:48.721Z,10.23
2022-12-08T18:24:51.339Z,13.50
2022-12-08T18:29:53.942Z,16.08
2022-12-08T18:34:56.545Z,16.30
2022-12-08T18:39:59.174Z,13.88
2022-12-08T18:45:04.426Z,15.02
2022-12-08T18:50:09.672Z,20.38
2022-12-08T18:55:12.293Z,14.40
2022-12-08T19:00:18.207Z,26.98
2022-12-08T19:05:20.960Z,21.40
2022-12-08T19:10:23.622Z,16.10
2022-12-08T19:15:26.292Z,11.60
2022-12-08T19:20:29.262Z,9.65
2022-12-08T19:25:31.866Z,9.75
2022-12-08T19:30:35.206Z,9.32
2022-12-08T19:35:37.909Z,8.65
2022-12-08T19:48:07.206Z,6.75
2022-12-08T19:58:40.418Z,8.85
2022-12-08T20:03:43.483Z,6.50
2022-12-08T20:08:50.626Z,5.55
2022-12-08T20:13:53.672Z,4.43
2022-12-08T20:18:56.432Z,5.78
2022-12-08T20:23:59.017Z,4.38
2022-12-08T20:29:01.533Z,7.18
2022-12-08T20:34:04.423Z,13.40
2022-12-08T20:39:18.044Z,12.95
2022-12-08T20:44:20.661Z,13.15
2022-12-08T20:49:23.656Z,10.45
2022-12-08T20:54:26.148Z,6.70
2022-12-08T20:59:29.212Z,15.02
2022-12-08T21:04:31.982Z,9.05
2022-12-08T21:09:35.323Z,12.77
2022-12-08T21:14:38.208Z,15.65
2022-12-08T21:19:40.866Z,19.52
2022-12-08T21:24:43.895Z,11.15
2022-12-08T21:29:46.651Z,11.20
2022-12-08T21:34:49.217Z,5.45
2022-12-08T21:39:51.939Z,3.40
2022-12-08T21:44:54.581Z,2.15
2022-12-08T21:49:57.391Z,1.60
2022-12-08T21:55:00.036Z,2.55
2022-12-08T22:00:03.412Z,5.68
2022-12-08T22:05:07.489Z,3.60
2022-12-08T22:10:12.368Z,4.22
2022-12-08T22:15:16.967Z,5.57
2022-12-08T22:20:21.318Z,6.63
2022-12-08T22:25:29.895Z,2.97
2022-12-08T22:30:38.821Z,4.15
2022-12-08T22:35:42.012Z,4.60
2022-12-08T22:40:47.084Z,3.88
2022-12-08T22:45:51.859Z,8.40
2022-12-08T22:51:02.723Z,3.65
2022-12-08T22:56:08.288Z,3.95
2022-12-08T23:01:27.436Z,5.18
2022-12-08T23:12:44.422Z,4.15
2022-12-08T23:17:47.052Z,3.67
2022-12-08T23:22:49.756Z,3.22
2022-12-08T23:27:52.910Z,3.80
2022-12-08T23:32:56.609Z,2.15
2022-12-08T23:37:59.314Z,2.67
2022-12-08T23:43:02.035Z,1.40
2022-12-08T23:48:04.666Z,2.45
2022-12-08T23:53:07.193Z,2.40
2022-12-08T23:58:09.864Z,1.67
